Portada
METAR-TAF:

METAR-TAF

Aeroports :

Rarotonga, Illes Cook

latitud: 21-12S, longitud: 159-49W, altitud: 7 m

Observació

L'informe es va fer fa 31 minuts, a les 04:30 UTC
Vent 4 kt del Est
Temperatura 22°C
Humitat 94%
Pressió 1017 hPa
Visibilitat 10 km o més

METAR: NCRG 050430Z AUTO 10004KT 9999 FEW018/// SCT029/// OVC044/// 22/21 Q1017

Hora: 19:01 (05:01 UTC)

Pronòstic

L'informe es va fer fa 5 hores i 44 minuts, a les 23:17 UTC
Pronòstic vàlid del 05 a les 00 UTC al 05 a les 24 UTC
Vent 9 kt del Est
Visibilitat 10 km o més
Núvols disperses a una alçada de 1900 ft
Cel ennuvolat a una alçada de 2500 ft
Cel cobert a una alçada de 4000 ft
xàfecs de pluja
Probabilitat 40% :
Temporalment
l' 05 a les 00 UTC al 05 a les 06 UTC
Visibilitat: 5000 m
Cel ennuvolat a una alçada de 1500 ft
xàfecs de pluja

TAF: NCRG 042317Z 0500/0524 09009KT 9999 -SHRA SCT019 BKN025 OVC040 PROB40 TEMPO 0500/0506 5000 SHRA BKN015

Observacions i pronòstics meteorològics de més de 4000 aeroports (METAR i TAF).

Les estacions disponibles són els punts grocs i vermells al mapa.

Posi el ratolí al punt desitjat per veure el nom de l'estació.

Feu clic per veure les observacions i els pronòstics meteorològics.

Per canviar el mapa: feu clic els botons verds amb una creu de color negre per apropar; al botó verd amb un guió per allunyar la imatge; o en les fletxes verdes per a mapes adjacents.


METAR-TAF: